Meteo Giornale » Osservazioni meteo Argentina » Viedma Aerodrome
ore: 16:00 - Osservazioni Meteo Viedma Aerodrome
Lat. 40° 51' S Lon. 63° 1' W Alt. 6 metri s.l.m.
15 °C
Sereno
Temp. 24 Ore
9 °C
17 °C
Ovest/Sud-Ovest
14.8 Km/h
Dew point -4 °C
Umidità 26 %
Visibilità 10 Km
Il sole sorge alle ore 07:37
Il sole tramonta alle ore 18:47
| Data e Ora | Cielo e Fenomeni | T °C | DP °C | Um. % | Pres. hPa | Vis. km | Vento km/h | |
|---|---|---|---|---|---|---|---|---|
| Oggi h: 16:00 | Sereno | 15 | -4 | 26 | 1016 | 10 | O/SO 14.8 | |
| Oggi h: 15:00 | Sereno | 16 | -3 | 26 | 1016 | 10 | O/SO 25.9 | |
| Oggi h: 14:00 | Sereno | 15 | -3 | 28 | 1016 | 10 | O/SO 25.9 | |
| Oggi h: 13:00 | Sereno | 15 | -1 | 33 | 1016 | 10 | O/SO 27.8 | |
| Oggi h: 12:00 | Sereno | 15 | 0 | 35 | 1016 | 10 | O/SO 33.3 | |
| Oggi h: 11:00 | Sereno | 14 | 0 | 38 | 1016 | 10 | O/SO 29.6 | |
| Oggi h: 10:00 | Sereno | 12 | 3 | 54 | 1015 | 10 | O 25.9 | |
| Oggi h: 09:00 | Sereno | 10 | 2 | 57 | 1014 | 10 | O/NO 18.5 | |
| Oggi h: 08:00 | Sereno | 10 | 2 | 57 | 1013 | 10 | O 16.7 | |
| Oggi h: 07:00 | Sereno | 11 | 2 | 53 | 1013 | 10 | O/NO 20.3 | |
| Oggi h: 06:00 | Sereno | 10 | 4 | 66 | 1012 | 10 | NO 16.7 | |
| Oggi h: 05:00 | Sereno | 11 | 4 | 61 | 1011 | 10 | NO 22.2 | |
| Oggi h: 04:00 | Sereno | 10 | 5 | 71 | 1011 | 10 | N/NO 16.7 | |
| Oggi h: 03:00 | Sereno | 10 | 5 | 71 | 1011 | 10 | N 13 | |
| Oggi h: 02:00 | Sereno | 10 | 5 | 71 | 1011 | 10 | N 14.8 | |
| Oggi h: 01:00 | Sereno | 9 | 5 | 75 | 1011 | 10 | N 7.4 | |
| Oggi h: 00:00 | Sereno | 10 | 4 | 66 | 1012 | 10 | N/NE 13 | |
| Ieri h: 23:00 | Sereno | 10 | 4 | 66 | 1012 | 10 | N/NE 13 | |
| Ieri h: 22:00 | Sereno | 10 | 5 | 71 | 1012 | 10 | N/NE 14.8 | |
| Ieri h: 21:00 | Sereno | 9 | 6 | 81 | 1012 | 10 | NE 7.4 | |
| Ieri h: 20:00 | Sereno | 11 | 5 | 66 | 1012 | 10 | E/NE 9.3 | |
| Ieri h: 19:00 | Sereno | 11 | 5 | 66 | 1012 | 10 | E 13 | |
| Ieri h: 18:00 | Sereno | 13 | 5 | 58 | 1012 | 10 | SE 13 | |
| Ieri h: 17:00 | Sereno | 17 | 3 | 39 | 1012 | 10 | N 5.5 | |



